Time;durP1;ratioP1;P1;durP2;ratioP2;P2;SDS_P1;SDS_P2;PMS_P1;PMS_P2;Temp;Humidity;BMP_temperature;BMP_pressure;BME280_temperature;BME280_humidity;BME280_pressure;Samples;Min_cycle;Max_cycle;Signal;HPM_P1;HPM_P2
2022/07/29 00:01:16;;;;;;;4.07;2.20;;;26.60;1.00;;;;;;5110379;28;20012;-47
2022/07/29 00:03:41;;;;;;;5.07;2.50;;;26.70;1.00;;;;;;5103339;28;20386;-51
2022/07/29 00:06:07;;;;;;;3.67;2.25;;;26.70;1.00;;;;;;5112454;28;20372;-46
2022/07/29 00:08:33;;;;;;;3.67;2.10;;;26.70;1.00;;;;;;5101417;28;20462;-49
2022/07/29 00:10:59;;;;;;;5.75;2.28;;;26.70;1.00;;;;;;5112034;28;20111;-48
2022/07/29 00:13:24;;;;;;;2.53;2.30;;;26.70;1.00;;;;;;5110703;28;20446;-48
2022/07/29 00:15:50;;;;;;;3.33;2.30;;;26.80;1.00;;;;;;5100677;28;20031;-47
2022/07/29 00:18:16;;;;;;;2.28;2.08;;;26.70;1.00;;;;;;5109018;28;20098;-49
2022/07/29 00:20:41;;;;;;;2.20;2.00;;;26.60;1.00;;;;;;5112137;28;20110;-52
2022/07/29 00:23:07;;;;;;;2.72;2.30;;;26.70;1.00;;;;;;5111837;28;20055;-47
2022/07/29 00:25:33;;;;;;;3.22;2.58;;;26.70;1.00;;;;;;5111669;28;20030;-49
2022/07/29 00:27:58;;;;;;;2.83;2.58;;;26.50;1.00;;;;;;5112620;28;20034;-49
2022/07/29 00:30:24;;;;;;;3.30;3.00;;;26.40;1.00;;;;;;5105722;28;20085;-45
2022/07/29 00:32:49;;;;;;;3.05;2.75;;;26.40;1.00;;;;;;5105080;28;20047;-46
2022/07/29 00:37:59;;;;;;;;;;;26.30;1.00;;;;;;5112931;28;20030;-46
2022/07/29 00:40:25;;;;;;;3.28;2.97;;;26.10;1.00;;;;;;5111644;28;19908;-46
2022/07/29 00:42:52;;;;;;;2.83;2.53;;;26.10;1.00;;;;;;5112493;28;20051;-47
2022/07/29 00:45:19;;;;;;;3.45;2.47;;;26.10;1.00;;;;;;5111528;28;20020;-47
2022/07/29 00:47:45;;;;;;;2.75;2.55;;;26.20;1.00;;;;;;5112157;28;20032;-45
2022/07/29 00:50:11;;;;;;;5.03;2.42;;;26.10;1.00;;;;;;5108160;28;20032;-45
2022/07/29 00:52:39;;;;;;;2.85;2.55;;;25.90;1.00;;;;;;5109502;28;20035;-45
2022/07/29 00:55:06;;;;;;;2.88;2.28;;;26.10;1.00;;;;;;5106606;28;20102;-46
2022/07/29 00:57:33;;;;;;;2.22;2.03;;;26.10;1.00;;;;;;5091625;28;20039;-47
2022/07/29 00:59:59;;;;;;;2.40;2.20;;;26.20;1.00;;;;;;5110198;28;20030;-46
2022/07/29 01:02:24;;;;;;;3.42;2.33;;;26.20;1.00;;;;;;5111731;28;20031;-47
2022/07/29 01:04:50;;;;;;;2.45;2.25;;;26.20;1.00;;;;;;5110696;28;20120;-46
2022/07/29 01:07:17;;;;;;;2.55;2.35;;;26.20;1.00;;;;;;5113218;28;20169;-46
2022/07/29 01:09:45;;;;;;;2.53;2.22;;;26.10;1.00;;;;;;5116048;28;20024;-46
2022/07/29 01:12:12;;;;;;;2.88;2.38;;;26.10;1.00;;;;;;5115929;28;20035;-47
2022/07/29 01:14:39;;;;;;;2.83;2.60;;;26.10;1.00;;;;;;5097375;28;20209;-45
2022/07/29 01:17:25;;;;;;;3.42;3.15;;;26.30;1.00;;;;;;5113923;28;20481;-46
2022/07/29 01:20:01;;;;;;;2.75;2.50;;;26.20;1.00;;;;;;5114770;28;20030;-46
2022/07/29 01:22:29;;;;;;;2.80;2.60;;;26.20;1.00;;;;;;5104697;28;20027;-46
2022/07/29 01:25:09;;;;;;;2.78;2.50;;;26.30;1.00;;;;;;5114775;28;20059;-47
2022/07/29 01:27:42;;;;;;;3.45;2.45;;;26.30;1.00;;;;;;5105020;28;20034;-47
2022/07/29 01:30:08;;;;;;;3.67;2.47;;;26.20;1.00;;;;;;5113458;28;20040;-47
2022/07/29 01:32:36;;;;;;;2.58;2.35;;;26.10;1.00;;;;;;5114577;28;20051;-46
2022/07/29 01:35:10;;;;;;;5.20;2.88;;;26.20;1.00;;;;;;5114285;28;20030;-46
2022/07/29 01:38:00;;;;;;;4.63;2.67;;;26.10;1.00;;;;;;5115373;28;20042;-47
2022/07/29 01:40:30;;;;;;;2.97;2.33;;;26.10;1.00;;;;;;5114023;28;20103;-46
2022/07/29 01:42:59;;;;;;;2.50;2.05;;;26.10;1.00;;;;;;5115263;28;20503;-47
2022/07/29 01:45:28;;;;;;;2.70;2.42;;;26.10;1.00;;;;;;5113863;28;20520;-46
2022/07/29 01:48:11;;;;;;;3.65;2.70;;;26.10;1.00;;;;;;5114334;28;20024;-46
2022/07/29 01:50:51;;;;;;;2.83;2.63;;;26.00;1.00;;;;;;5111250;28;20040;-47
2022/07/29 01:53:29;;;;;;;2.97;2.70;;;26.00;1.00;;;;;;5106231;28;20030;-46
2022/07/29 01:55:59;;;;;;;2.20;2.00;;;26.10;1.00;;;;;;5114779;28;20036;-47
2022/07/29 01:58:26;;;;;;;2.22;2.05;;;26.10;1.00;;;;;;5115279;28;20020;-46
2022/07/29 02:00:53;;;;;;;3.63;2.80;;;26.20;1.00;;;;;;5114627;28;20028;-47
2022/07/29 02:03:20;;;;;;;2.72;2.53;;;25.90;1.00;;;;;;5106134;28;20097;-47
2022/07/29 02:05:47;;;;;;;3.45;2.88;;;25.90;1.00;;;;;;5114276;28;20032;-47
2022/07/29 02:08:15;;;;;;;2.55;2.35;;;26.00;1.00;;;;;;5115416;28;20389;-46
2022/07/29 02:10:43;;;;;;;3.70;2.97;;;25.90;1.00;;;;;;5114509;28;20036;-47
2022/07/29 02:13:10;;;;;;;3.45;2.53;;;25.80;1.00;;;;;;5115249;28;20024;-53
2022/07/29 02:15:37;;;;;;;3.15;2.78;;;26.00;1.00;;;;;;5114077;28;20373;-50
2022/07/29 02:18:08;;;;;;;2.50;2.15;;;25.90;1.00;;;;;;5114895;28;20168;-46
2022/07/29 02:20:34;;;;;;;3.60;2.63;;;25.90;1.00;;;;;;5113548;28;20111;-46
2022/07/29 02:23:01;;;;;;;2.25;2.05;;;25.90;1.00;;;;;;5114586;28;20085;-48
2022/07/29 02:25:28;;;;;;;1.83;1.73;;;26.00;1.00;;;;;;5114114;28;20034;-47
2022/07/29 02:27:55;;;;;;;1.75;1.65;;;25.70;1.00;;;;;;5096560;28;20053;-47
2022/07/29 02:30:22;;;;;;;2.47;1.70;;;25.80;1.00;;;;;;5113864;28;20032;-51
2022/07/29 02:32:49;;;;;;;2.20;1.92;;;25.80;1.00;;;;;;5114899;28;20018;-47
2022/07/29 02:35:15;;;;;;;1.92;1.70;;;25.80;1.00;;;;;;5113808;28;20357;-48
2022/07/29 02:37:44;;;;;;;1.40;1.30;;;25.70;1.00;;;;;;5101279;28;20023;-48
2022/07/29 02:40:14;;;;;;;1.35;1.27;;;25.80;1.00;;;;;;5114478;28;20024;-49
2022/07/29 02:42:42;;;;;;;2.30;1.40;;;25.80;1.00;;;;;;5114302;28;20054;-48
2022/07/29 02:45:08;;;;;;;1.73;1.58;;;25.90;1.00;;;;;;5114529;28;20031;-46
2022/07/29 02:47:39;;;;;;;1.73;1.63;;;25.80;1.00;;;;;;5113544;28;20089;-48
2022/07/29 02:50:15;;;;;;;1.70;1.60;;;25.80;1.00;;;;;;5114397;28;20024;-46
2022/07/29 02:52:58;;;;;;;1.65;1.55;;;25.80;1.00;;;;;;5113460;28;20539;-47
2022/07/29 02:55:51;;;;;;;1.83;1.50;;;25.80;1.00;;;;;;5104644;28;20500;-47
2022/07/29 02:58:31;;;;;;;1.60;1.50;;;25.80;1.00;;;;;;5112634;28;20039;-46
2022/07/29 03:01:01;;;;;;;1.65;1.55;;;25.70;1.00;;;;;;5113295;28;20076;-47
2022/07/29 03:03:35;;;;;;;2.92;1.92;;;25.60;1.00;;;;;;5113540;28;20039;-46
2022/07/29 03:06:02;;;;;;;2.30;2.10;;;25.60;1.00;;;;;;5112930;28;20388;-46
2022/07/29 03:08:29;;;;;;;2.22;1.90;;;25.50;1.00;;;;;;5114054;28;20047;-47
2022/07/29 03:10:55;;;;;;;4.70;1.73;;;25.50;1.00;;;;;;5113018;28;20397;-49
2022/07/29 03:13:21;;;;;;;6.25;2.40;;;25.40;1.00;;;;;;5114381;28;20015;-49
2022/07/29 03:15:47;;;;;;;2.70;2.30;;;25.30;1.00;;;;;;5113437;28;20036;-47
2022/07/29 03:18:14;;;;;;;1.75;1.65;;;25.40;1.00;;;;;;5113670;28;20022;-49
2022/07/29 03:20:40;;;;;;;2.05;1.83;;;25.30;1.00;;;;;;5112946;28;20023;-48
2022/07/29 03:23:07;;;;;;;2.97;1.90;;;25.50;1.00;;;;;;5113676;28;20020;-46
2022/07/29 03:25:33;;;;;;;1.65;1.55;;;25.40;1.00;;;;;;5112711;28;20116;-48
2022/07/29 03:27:59;;;;;;;2.38;1.58;;;25.50;1.00;;;;;;5112527;28;20059;-47
2022/07/29 03:30:25;;;;;;;1.90;1.80;;;25.50;1.00;;;;;;5113351;28;20038;-46
2022/07/29 03:32:51;;;;;;;2.47;1.60;;;25.60;1.00;;;;;;5112568;28;20023;-48
2022/07/29 03:35:17;;;;;;;2.65;1.40;;;25.60;1.00;;;;;;5113619;28;20121;-46
2022/07/29 03:37:44;;;;;;;2.88;1.95;;;25.50;1.00;;;;;;5112561;28;20065;-46
2022/07/29 03:40:13;;;;;;;2.35;1.60;;;25.40;1.00;;;;;;5113477;28;20047;-46
2022/07/29 03:42:40;;;;;;;1.88;1.58;;;25.50;1.00;;;;;;5112570;28;20130;-50
2022/07/29 03:45:09;;;;;;;2.28;1.70;;;25.60;1.00;;;;;;5113387;28;20024;-46
2022/07/29 03:47:38;;;;;;;2.20;2.00;;;25.50;1.00;;;;;;5112376;28;20016;-47
2022/07/29 03:50:10;;;;;;;1.70;1.60;;;25.50;1.00;;;;;;5113172;28;20027;-47
2022/07/29 03:52:36;;;;;;;2.15;1.95;;;25.60;1.00;;;;;;5112171;28;20123;-46
2022/07/29 03:55:02;;;;;;;2.97;1.80;;;25.60;1.00;;;;;;5106099;28;20119;-48
2022/07/29 03:57:30;;;;;;;2.38;1.90;;;25.70;1.00;;;;;;5108275;28;20023;-46
2022/07/29 03:59:57;;;;;;;1.70;1.60;;;25.60;1.00;;;;;;5113276;28;20415;-47
2022/07/29 04:02:22;;;;;;;1.88;1.58;;;25.50;1.00;;;;;;5112265;28;20525;-49
2022/07/29 04:04:48;;;;;;;5.40;1.63;;;25.50;1.00;;;;;;5112882;28;20062;-46
2022/07/29 04:07:15;;;;;;;1.65;1.55;;;25.40;1.00;;;;;;5110798;28;20028;-47
2022/07/29 04:09:41;;;;;;;1.88;1.70;;;25.50;1.00;;;;;;5111871;28;20028;-47
2022/07/29 04:12:07;;;;;;;1.77;1.67;;;25.60;1.00;;;;;;5088044;28;20111;-53
2022/07/29 04:14:33;;;;;;;2.33;2.13;;;25.60;1.00;;;;;;5097244;28;20333;-51
2022/07/29 04:17:00;;;;;;;3.58;2.10;;;25.60;1.00;;;;;;5101390;28;20038;-50
2022/07/29 04:19:26;;;;;;;2.03;1.45;;;25.50;1.00;;;;;;5110086;28;20032;-48
2022/07/29 04:21:52;;;;;;;2.95;1.60;;;25.60;1.00;;;;;;5105789;28;20054;-49
2022/07/29 04:24:17;;;;;;;1.75;1.52;;;25.60;1.00;;;;;;5095347;28;20036;-48
2022/07/29 04:26:45;;;;;;;1.58;1.48;;;25.60;1.00;;;;;;5109942;28;20031;-48
2022/07/29 04:29:11;;;;;;;2.47;1.58;;;25.60;1.00;;;;;;5112541;28;20032;-47
2022/07/29 04:31:37;;;;;;;1.90;1.70;;;25.60;1.00;;;;;;5111655;28;20027;-47
2022/07/29 04:34:03;;;;;;;2.72;1.50;;;25.60;1.00;;;;;;5112845;28;20115;-46
2022/07/29 04:36:29;;;;;;;1.60;1.50;;;25.60;1.00;;;;;;5111377;28;20399;-46
2022/07/29 04:38:54;;;;;;;1.85;1.40;;;25.60;1.00;;;;;;5112795;28;20512;-46
2022/07/29 04:41:20;;;;;;;2.78;1.65;;;25.50;1.00;;;;;;5110529;28;20046;-47
2022/07/29 04:43:45;;;;;;;2.17;1.77;;;25.60;1.00;;;;;;5112435;28;20072;-47
2022/07/29 04:46:11;;;;;;;2.67;1.52;;;25.60;1.00;;;;;;5111699;28;20023;-47
2022/07/29 04:48:37;;;;;;;1.73;1.52;;;25.60;1.00;;;;;;5111820;28;20511;-47
2022/07/29 04:51:02;;;;;;;1.88;1.50;;;25.60;1.00;;;;;;5111370;28;20611;-47
2022/07/29 04:53:28;;;;;;;2.53;1.45;;;25.60;1.00;;;;;;5112455;28;20391;-49
2022/07/29 04:55:54;;;;;;;2.83;1.55;;;25.50;1.00;;;;;;5097235;28;20018;-47
2022/07/29 04:58:19;;;;;;;1.35;1.25;;;25.60;1.00;;;;;;5111046;28;20441;-47
2022/07/29 05:00:45;;;;;;;1.77;1.27;;;25.60;1.00;;;;;;5112213;28;20028;-51
2022/07/29 05:03:11;;;;;;;1.60;1.48;;;25.60;1.00;;;;;;5111812;28;20085;-47
2022/07/29 05:05:36;;;;;;;1.50;1.20;;;25.60;1.00;;;;;;5110975;28;20031;-47
2022/07/29 05:08:02;;;;;;;1.60;1.33;;;25.60;1.00;;;;;;5111214;28;20032;-47
2022/07/29 05:10:28;;;;;;;2.42;1.52;;;25.60;1.00;;;;;;5111888;28;20457;-47
2022/07/29 05:12:54;;;;;;;2.05;1.52;;;25.60;1.00;;;;;;5111553;28;20129;-48
2022/07/29 05:15:19;;;;;;;2.85;1.50;;;25.70;1.00;;;;;;5112499;28;20361;-47
2022/07/29 05:17:45;;;;;;;1.95;1.27;;;25.70;1.00;;;;;;5111282;28;20180;-47
2022/07/29 05:20:11;;;;;;;1.08;1.05;;;25.60;1.00;;;;;;5109404;28;20109;-47
2022/07/29 05:22:36;;;;;;;4.25;1.20;;;25.70;1.00;;;;;;5106759;28;20027;-47
2022/07/29 05:25:02;;;;;;;2.17;1.27;;;25.80;1.00;;;;;;5111914;28;20469;-47
2022/07/29 05:27:28;;;;;;;2.13;1.30;;;25.80;1.00;;;;;;5111128;28;20176;-47
2022/07/29 05:29:54;;;;;;;2.65;1.63;;;25.80;1.00;;;;;;5111831;28;20484;-49
2022/07/29 05:32:19;;;;;;;2.55;1.75;;;25.90;1.00;;;;;;5111593;28;20380;-46
2022/07/29 05:34:45;;;;;;;1.80;1.27;;;26.00;1.00;;;;;;5111774;28;20016;-47
2022/07/29 05:37:13;;;;;;;3.33;1.65;;;26.00;1.00;;;;;;5103054;28;20032;-46
2022/07/29 05:39:39;;;;;;;2.92;1.58;;;26.10;1.00;;;;;;5106000;28;20099;-48
2022/07/29 05:42:10;;;;;;;2.55;1.73;;;26.10;1.00;;;;;;5111009;28;20056;-47
2022/07/29 05:44:37;;;;;;;4.70;1.80;;;26.10;1.00;;;;;;5112006;28;20066;-46
2022/07/29 05:47:03;;;;;;;3.92;1.90;;;26.10;1.00;;;;;;5109569;28;20024;-46
2022/07/29 05:49:29;;;;;;;2.20;1.98;;;26.20;1.00;;;;;;5110261;28;20084;-46
2022/07/29 05:51:54;;;;;;;3.38;2.67;;;26.20;1.00;;;;;;5112175;28;20058;-46
2022/07/29 05:54:20;;;;;;;2.80;2.40;;;26.20;1.00;;;;;;5115554;28;20404;-49
2022/07/29 05:56:46;;;;;;;5.50;2.40;;;26.30;1.00;;;;;;5111710;28;20361;-46
2022/07/29 05:59:11;;;;;;;3.85;1.98;;;26.30;1.00;;;;;;5115838;28;20024;-46
2022/07/29 06:01:39;;;;;;;5.55;1.88;;;26.30;1.00;;;;;;5114374;28;20081;-47
2022/07/29 06:04:06;;;;;;;2.88;2.13;;;26.40;1.00;;;;;;5115358;28;20008;-47
2022/07/29 06:06:32;;;;;;;3.13;2.53;;;26.40;1.00;;;;;;5114498;28;20034;-47
2022/07/29 06:09:10;;;;;;;3.33;2.42;;;26.40;1.00;;;;;;5096890;28;20023;-46
2022/07/29 06:11:36;;;;;;;5.28;2.28;;;26.40;1.00;;;;;;5096123;28;20081;-46
2022/07/29 06:14:02;;;;;;;1.88;1.75;;;26.40;1.00;;;;;;5115154;28;20044;-48
2022/07/29 06:16:28;;;;;;;2.67;1.80;;;26.40;1.00;;;;;;5114412;28;20073;-46
2022/07/29 06:18:54;;;;;;;2.83;2.03;;;26.40;1.00;;;;;;5114568;28;20024;-46
2022/07/29 06:21:19;;;;;;;5.03;1.83;;;26.30;1.00;;;;;;5114389;28;20430;-52
2022/07/29 06:23:45;;;;;;;4.40;2.20;;;26.30;1.00;;;;;;5114585;28;20016;-47
2022/07/29 06:26:10;;;;;;;1.77;1.67;;;26.30;1.00;;;;;;5096939;28;20468;-46
2022/07/29 06:28:36;;;;;;;2.05;1.85;;;26.30;1.00;;;;;;5114124;28;20106;-46
2022/07/29 06:31:02;;;;;;;2.20;1.98;;;26.40;1.00;;;;;;5115023;28;20049;-46
2022/07/29 06:33:27;;;;;;;2.83;2.30;;;26.30;1.00;;;;;;5113828;28;20088;-47
2022/07/29 06:35:53;;;;;;;5.65;2.28;;;26.30;1.00;;;;;;5114881;28;20133;-46
2022/07/29 06:38:18;;;;;;;3.08;2.50;;;26.30;1.00;;;;;;5113938;28;20016;-48
2022/07/29 06:41:05;;;;;;;4.72;2.20;;;26.30;1.00;;;;;;5114398;28;20451;-47
2022/07/29 06:43:33;;;;;;;2.67;1.73;;;26.30;1.00;;;;;;5113955;28;20019;-48
2022/07/29 06:46:05;;;;;;;3.17;2.20;;;26.40;1.00;;;;;;5114746;28;20476;-46
2022/07/29 06:48:44;;;;;;;4.30;2.40;;;26.40;1.00;;;;;;5112731;28;20038;-48
2022/07/29 06:51:11;;;;;;;2.83;2.28;;;26.40;1.00;;;;;;5114358;28;20468;-47
2022/07/29 06:53:37;;;;;;;4.28;2.22;;;26.50;1.00;;;;;;5113202;28;20011;-48
2022/07/29 06:56:05;;;;;;;2.22;1.98;;;26.50;1.00;;;;;;5114303;28;20039;-47
2022/07/29 06:58:30;;;;;;;2.63;2.17;;;26.40;1.00;;;;;;5113348;28;20512;-47
2022/07/29 07:00:58;;;;;;;2.75;2.40;;;26.50;1.00;;;;;;5114327;28;20031;-48
2022/07/29 07:03:24;;;;;;;6.55;3.08;;;26.50;1.00;;;;;;5111852;28;20385;-46
2022/07/29 07:05:52;;;;;;;6.07;2.95;;;26.60;1.00;;;;;;5100068;28;20085;-49
2022/07/29 07:08:19;;;;;;;5.03;2.85;;;26.60;1.00;;;;;;5113466;28;20145;-48
2022/07/29 07:10:44;;;;;;;5.10;2.95;;;26.60;1.00;;;;;;5113899;28;20111;-47
2022/07/29 07:13:10;;;;;;;3.78;2.35;;;26.60;1.00;;;;;;5113418;28;20450;-47
2022/07/29 07:15:36;;;;;;;5.45;2.35;;;26.60;1.00;;;;;;5114259;28;20031;-46
2022/07/29 07:18:03;;;;;;;5.10;2.75;;;26.60;1.00;;;;;;5113226;28;20381;-52
2022/07/29 07:20:28;;;;;;;3.13;2.42;;;26.60;1.00;;;;;;5113751;28;20020;-48
2022/07/29 07:22:54;;;;;;;2.67;2.28;;;26.60;1.00;;;;;;5113227;28;20024;-48
2022/07/29 07:25:20;;;;;;;3.15;2.17;;;26.70;1.00;;;;;;5113639;28;20019;-53
2022/07/29 07:27:46;;;;;;;3.65;2.35;;;26.70;1.00;;;;;;5113248;28;20032;-49
2022/07/29 07:30:12;;;;;;;4.40;2.70;;;26.70;1.00;;;;;;5113719;28;20418;-46
2022/07/29 07:32:38;;;;;;;4.43;2.30;;;26.70;1.00;;;;;;5112788;28;20024;-49
2022/07/29 07:35:06;;;;;;;4.55;3.30;;;26.80;1.00;;;;;;5107429;28;20103;-51
2022/07/29 07:37:32;;;;;;;4.80;2.83;;;26.80;1.00;;;;;;5099174;28;20038;-49
2022/07/29 07:39:58;;;;;;;6.30;2.75;;;26.90;1.00;;;;;;5105126;28;20043;-48
2022/07/29 07:42:24;;;;;;;3.75;2.80;;;26.90;1.00;;;;;;5105135;28;20118;-48
2022/07/29 07:44:49;;;;;;;3.95;2.38;;;27.00;1.00;;;;;;5097844;28;20119;-52
2022/07/29 07:47:19;;;;;;;4.82;2.60;;;26.90;1.00;;;;;;5101444;28;20120;-51
2022/07/29 07:49:48;;;;;;;7.28;2.88;;;26.90;1.00;;;;;;5100218;28;20020;-55
2022/07/29 07:52:16;;;;;;;6.22;2.72;;;27.10;1.00;;;;;;5109728;28;20023;-55
2022/07/29 07:54:42;;;;;;;4.57;3.05;;;27.10;1.00;;;;;;5113720;28;20418;-51
2022/07/29 07:57:08;;;;;;;5.38;2.88;;;27.10;1.00;;;;;;5112508;28;20032;-54
2022/07/29 07:59:34;;;;;;;2.83;2.00;;;27.10;1.00;;;;;;5113261;28;20177;-54
2022/07/29 08:02:00;;;;;;;4.38;2.97;;;27.10;1.00;;;;;;5112651;28;20027;-50
2022/07/29 08:04:26;;;;;;;4.13;2.67;;;27.10;1.00;;;;;;5113288;28;20034;-53
2022/07/29 08:06:54;;;;;;;4.32;3.17;;;27.10;1.00;;;;;;5112646;28;20024;-54
2022/07/29 08:09:20;;;;;;;3.20;2.50;;;27.20;1.00;;;;;;5099727;28;20047;-52
2022/07/29 08:11:45;;;;;;;4.70;3.78;;;27.20;1.00;;;;;;5112517;28;20397;-54
2022/07/29 08:14:11;;;;;;;3.60;2.67;;;27.30;1.00;;;;;;5112312;28;20027;-54
2022/07/29 08:16:36;;;;;;;4.07;2.72;;;27.30;1.00;;;;;;5111895;28;20069;-54
2022/07/29 08:19:02;;;;;;;4.72;3.17;;;27.40;1.00;;;;;;5093259;28;20051;-51
2022/07/29 08:21:28;;;;;;;4.40;3.40;;;27.40;1.00;;;;;;5111929;28;20039;-52
2022/07/29 08:24:42;;;;;;;5.82;3.33;;;27.50;1.00;;;;;;5112044;28;20019;-51
2022/07/29 08:26:40;;;;;;;3.67;2.80;;;27.50;1.00;;;;;;5112654;28;20036;-53
2022/07/29 08:29:06;;;;;;;4.75;2.95;;;27.50;1.00;;;;;;5111957;28;20111;-54
2022/07/29 08:31:31;;;;;;;4.07;3.17;;;27.40;1.00;;;;;;5112864;28;20119;-55
2022/07/29 08:33:59;;;;;;;3.45;3.13;;;27.40;1.00;;;;;;5112247;28;20019;-50
2022/07/29 08:36:25;;;;;;;6.22;2.83;;;27.60;1.00;;;;;;5111999;28;20098;-52
2022/07/29 08:38:51;;;;;;;3.97;2.22;;;27.80;1.00;;;;;;5111944;28;20051;-54
2022/07/29 08:41:20;;;;;;;4.55;3.03;;;27.90;1.00;;;;;;5112478;28;20050;-51
2022/07/29 08:43:47;;;;;;;5.13;2.92;;;28.00;1.00;;;;;;5112134;28;20027;-50
2022/07/29 08:46:13;;;;;;;5.22;3.50;;;28.20;1.00;;;;;;5110978;28;20019;-52
2022/07/29 08:48:40;;;;;;;3.88;2.67;;;28.20;1.00;;;;;;5112070;28;20434;-50
2022/07/29 08:51:07;;;;;;;4.22;3.13;;;28.10;1.00;;;;;;5112447;28;20043;-52
2022/07/29 08:53:33;;;;;;;3.42;2.58;;;28.10;1.00;;;;;;5111691;28;20023;-49
2022/07/29 08:55:59;;;;;;;5.13;3.05;;;28.10;1.00;;;;;;5112602;28;20027;-49
2022/07/29 08:58:27;;;;;;;4.97;3.72;;;28.40;1.00;;;;;;5111500;28;20024;-53
2022/07/29 09:00:55;;;;;;;3.95;2.92;;;28.40;1.00;;;;;;5092382;28;20956;-52
2022/07/29 09:03:23;;;;;;;7.93;3.30;;;28.60;1.00;;;;;;5108335;28;20122;-52
2022/07/29 09:05:50;;;;;;;3.90;2.95;;;28.40;1.00;;;;;;5111514;28;20085;-50
2022/07/29 09:08:17;;;;;;;2.85;2.65;;;28.40;1.00;;;;;;5111509;28;20051;-49
2022/07/29 09:10:43;;;;;;;2.90;2.67;;;28.30;1.00;;;;;;5111680;28;20024;-50
2022/07/29 09:13:09;;;;;;;3.25;2.70;;;28.40;1.00;;;;;;5110402;28;20035;-51
2022/07/29 09:15:35;;;;;;;4.75;2.88;;;28.50;1.00;;;;;;5112422;28;20023;-49
2022/07/29 09:18:01;;;;;;;3.63;3.20;;;28.50;1.00;;;;;;5111166;28;20032;-49
2022/07/29 09:21:57;;;;;;;6.93;3.25;;;28.60;1.00;;;;;;5112180;28;20019;-49
2022/07/29 09:23:13;;;;;;;3.50;3.20;;;28.60;1.00;;;;;;5111404;28;20031;-51
2022/07/29 09:25:41;;;;;;;3.45;3.15;;;28.50;1.00;;;;;;5111280;28;20038;-51
2022/07/29 09:28:12;;;;;;;4.85;3.72;;;28.60;1.00;;;;;;5090699;28;20019;-49
2022/07/29 09:30:56;;;;;;;4.03;3.30;;;28.90;1.00;;;;;;5116089;28;20099;-48
2022/07/29 09:33:22;;;;;;;5.43;3.35;;;29.00;1.00;;;;;;5110560;28;20020;-49
2022/07/29 09:36:05;;;;;;;5.38;4.20;;;29.30;1.00;;;;;;5116059;28;20034;-49
2022/07/29 09:38:32;;;;;;;5.22;4.72;;;29.20;1.00;;;;;;5115169;28;20449;-51
2022/07/29 09:40:59;;;;;;;4.60;4.20;;;29.10;1.00;;;;;;5114939;28;20032;-51
2022/07/29 09:43:25;;;;;;;4.90;4.40;;;29.00;1.00;;;;;;5115118;28;20028;-49
2022/07/29 09:45:51;;;;;;;4.70;4.30;;;29.10;1.00;;;;;;5115774;28;20016;-51
2022/07/29 09:48:19;;;;;;;3.70;3.33;;;29.10;1.00;;;;;;5114906;28;20084;-51
2022/07/29 09:50:48;;;;;;;4.95;4.28;;;29.20;1.00;;;;;;5115209;28;20039;-49
2022/07/29 09:53:29;;;;;;;5.20;3.90;;;29.50;1.00;;;;;;5114996;28;20028;-48
2022/07/29 09:55:55;;;;;;;4.88;4.47;;;29.50;1.00;;;;;;5114993;28;20024;-49
2022/07/29 09:58:22;;;;;;;6.05;3.78;;;29.50;1.00;;;;;;5114643;28;20037;-49
2022/07/29 10:00:49;;;;;;;4.50;3.72;;;29.60;1.00;;;;;;5115539;28;20023;-51
2022/07/29 10:03:15;;;;;;;5.53;4.10;;;29.70;1.00;;;;;;5106667;28;20126;-50
2022/07/29 10:05:42;;;;;;;4.50;3.83;;;29.80;1.00;;;;;;5115126;28;20020;-48
2022/07/29 10:08:09;;;;;;;4.13;3.17;;;29.80;1.00;;;;;;5114403;28;20047;-48
2022/07/29 10:10:38;;;;;;;4.78;4.05;;;29.80;1.00;;;;;;5114964;28;20020;-50
2022/07/29 10:13:07;;;;;;;5.18;3.08;;;29.80;1.00;;;;;;5114198;28;20054;-50
2022/07/29 10:15:38;;;;;;;4.97;4.50;;;29.90;1.00;;;;;;5114865;28;20096;-49
2022/07/29 10:18:05;;;;;;;4.80;4.40;;;29.80;1.00;;;;;;5113874;28;20046;-50
2022/07/29 10:20:31;;;;;;;6.35;4.25;;;29.80;1.00;;;;;;5114675;28;20028;-53
2022/07/29 10:22:57;;;;;;;3.90;3.35;;;29.80;1.00;;;;;;5114182;28;20392;-49
2022/07/29 10:25:23;;;;;;;3.95;3.47;;;30.20;1.00;;;;;;5113850;28;20023;-51
2022/07/29 10:27:53;;;;;;;5.03;4.20;;;30.40;1.00;;;;;;5112466;28;20034;-48
2022/07/29 10:30:20;;;;;;;5.45;3.90;;;30.30;1.00;;;;;;5114444;28;20039;-50
2022/07/29 10:32:51;;;;;;;8.43;4.85;;;30.20;1.00;;;;;;5113296;28;20126;-49
2022/07/29 10:35:51;;;;;;;5.60;4.20;;;30.30;1.00;;;;;;5114034;28;20030;-52
2022/07/29 10:38:31;;;;;;;4.32;3.83;;;30.10;1.00;;;;;;5113457;28;20119;-48
2022/07/29 10:43:48;;;;;;;4.15;3.75;;;30.30;1.00;;;;;;5110333;28;20061;-51
2022/07/29 10:46:15;;;;;;;6.72;4.82;;;30.40;1.00;;;;;;5114185;28;20024;-52
2022/07/29 10:49:10;;;;;;;5.00;4.20;;;30.40;1.00;;;;;;5113350;28;20429;-50
2022/07/29 10:52:05;;;;;;;5.10;4.03;;;30.40;1.00;;;;;;5110074;28;20051;-50
2022/07/29 10:54:41;;;;;;;6.63;3.92;;;30.50;1.00;;;;;;5107783;28;20016;-53
2022/07/29 10:57:16;;;;;;;5.32;4.82;;;30.70;1.00;;;;;;5111363;28;20016;-51
2022/07/29 10:59:50;;;;;;;4.90;4.40;;;30.90;1.00;;;;;;5113816;28;20015;-51
2022/07/29 11:02:39;;;;;;;5.35;4.85;;;30.90;1.00;;;;;;5110773;28;20020;-53
2022/07/29 11:05:12;;;;;;;5.85;4.60;;;31.00;1.00;;;;;;5081745;28;20122;-48
2022/07/29 11:07:59;;;;;;;8.13;5.40;;;30.90;1.00;;;;;;5113108;28;20489;-49
2022/07/29 11:10:25;;;;;;;5.55;4.70;;;31.00;1.00;;;;;;5113634;28;20086;-49
2022/07/29 11:12:51;;;;;;;5.55;5.15;;;31.00;1.00;;;;;;5095042;28;20066;-50
2022/07/29 11:15:23;;;;;;;5.72;5.05;;;31.00;1.00;;;;;;5113732;28;20380;-51
2022/07/29 11:17:57;;;;;;;4.38;3.95;;;31.00;1.00;;;;;;5112478;28;20024;-51
2022/07/29 11:20:35;;;;;;;4.63;4.22;;;31.00;1.00;;;;;;5113586;28;20023;-51
2022/07/29 11:23:01;;;;;;;4.85;4.45;;;31.10;1.00;;;;;;5105309;28;20546;-49
2022/07/29 11:25:27;;;;;;;4.72;4.30;;;31.30;1.00;;;;;;5113592;28;20020;-50
2022/07/29 11:28:08;;;;;;;5.45;4.95;;;31.30;1.00;;;;;;5112300;28;20110;-49
2022/07/29 11:30:51;;;;;;;6.75;6.05;;;31.30;1.00;;;;;;5113548;28;20023;-52
2022/07/29 11:33:31;;;;;;;6.70;5.35;;;31.60;1.00;;;;;;5105092;28;20389;-53
2022/07/29 11:36:10;;;;;;;5.97;5.00;;;31.80;1.00;;;;;;5112515;28;20038;-56
2022/07/29 11:38:35;;;;;;;5.30;4.85;;;32.10;1.00;;;;;;5109960;28;20043;-51
2022/07/29 11:41:22;;;;;;;6.30;5.80;;;32.50;1.00;;;;;;5112672;28;20496;-50
2022/07/29 11:43:52;;;;;;;7.43;5.80;;;32.50;1.00;;;;;;5094319;28;20451;-52
2022/07/29 11:46:50;;;;;;;6.43;5.68;;;32.20;1.00;;;;;;5113082;28;20023;-50
2022/07/29 11:49:26;;;;;;;5.50;5.10;;;32.20;1.00;;;;;;5111476;28;20365;-53
2022/07/29 11:51:54;;;;;;;7.15;5.63;;;32.00;1.00;;;;;;5112162;28;20036;-48
2022/07/29 11:54:30;;;;;;;6.00;5.35;;;31.80;1.00;;;;;;5111932;28;20019;-49
2022/07/29 11:56:57;;;;;;;6.78;6.18;;;31.80;1.00;;;;;;5112903;28;20024;-54
2022/07/29 11:59:24;;;;;;;6.40;5.90;;;31.70;1.00;;;;;;5111651;28;20021;-53
2022/07/29 12:01:58;;;;;;;8.38;5.20;;;31.70;1.00;;;;;;5094257;28;20023;-49
2022/07/29 12:04:24;;;;;;;5.85;5.10;;;32.10;1.00;;;;;;5111475;28;20023;-48
2022/07/29 12:06:53;;;;;;;6.07;5.38;;;33.30;1.00;;;;;;5112747;28;20039;-53
2022/07/29 12:09:20;;;;;;;7.60;6.90;;;34.00;1.00;;;;;;5093949;28;20024;-51
2022/07/29 12:11:47;;;;;;;7.32;5.50;;;33.50;1.00;;;;;;5112868;28;20473;-55
2022/07/29 12:14:29;;;;;;;6.10;5.47;;;33.20;1.00;;;;;;5112346;28;20023;-50
2022/07/29 12:16:56;;;;;;;5.68;5.18;;;33.00;1.00;;;;;;5112917;28;20038;-50
2022/07/29 12:19:21;;;;;;;5.70;5.10;;;33.90;1.00;;;;;;5112185;28;20016;-52
2022/07/29 12:21:49;;;;;;;5.63;4.97;;;35.80;1.00;;;;;;5112107;28;20487;-49
2022/07/29 12:24:15;;;;;;;6.63;6.03;;;37.60;1.00;;;;;;5110346;28;20043;-52
2022/07/29 12:26:51;;;;;;;5.85;5.40;;;40.30;1.00;;;;;;5112783;28;20030;-50
2022/07/29 12:29:17;;;;;;;6.88;6.28;;;40.70;1.00;;;;;;5111997;28;20026;-51
2022/07/29 12:31:43;;;;;;;6.60;5.80;;;40.20;1.00;;;;;;5112671;28;20124;-50
2022/07/29 12:34:11;;;;;;;6.40;5.80;;;37.70;1.00;;;;;;5111698;28;20012;-53
2022/07/29 12:36:36;;;;;;;6.55;6.00;;;36.20;1.00;;;;;;5112628;28;20499;-51
2022/07/29 12:39:03;;;;;;;7.55;6.13;;;34.60;1.00;;;;;;5111862;28;20031;-48
2022/07/29 12:41:29;;;;;;;5.57;5.07;;;34.50;1.00;;;;;;5112318;28;20043;-53
2022/07/29 12:43:55;;;;;;;5.95;5.40;;;34.80;1.00;;;;;;5103161;28;20103;-51
2022/07/29 12:46:21;;;;;;;5.93;5.43;;;35.50;1.00;;;;;;5111361;28;20062;-53
2022/07/29 12:48:54;;;;;;;6.10;5.60;;;35.60;1.00;;;;;;5093316;28;20449;-53
2022/07/29 12:51:29;;;;;;;6.03;5.50;;;35.60;1.00;;;;;;5110369;28;20515;-54
2022/07/29 12:54:15;;;;;;;7.10;6.45;;;35.70;1.00;;;;;;5111765;28;20024;-52
2022/07/29 12:56:43;;;;;;;6.90;6.30;;;35.60;1.00;;;;;;5112523;28;20032;-54
2022/07/29 12:59:20;;;;;;;6.55;6.03;;;35.10;1.00;;;;;;5111545;28;20028;-51
2022/07/29 13:01:48;;;;;;;6.50;5.82;;;34.80;1.00;;;;;;5113360;28;20473;-53
2022/07/29 13:04:28;;;;;;;6.53;5.47;;;35.30;1.00;;;;;;5114981;28;20019;-51
2022/07/29 13:07:06;;;;;;;7.95;7.25;;;36.00;1.00;;;;;;5094684;28;20028;-52
2022/07/29 13:09:39;;;;;;;7.70;6.65;;;36.40;1.00;;;;;;5098790;28;20023;-51
2022/07/29 13:12:10;;;;;;;7.38;6.75;;;36.10;1.00;;;;;;5116428;28;20107;-50